createdAt,value
2022-10-04T00:04:09.347Z,3.00
2022-10-04T00:09:18.182Z,2.70
2022-10-04T00:14:26.636Z,3.10
2022-10-04T00:19:44.301Z,2.92
2022-10-04T00:25:20.303Z,3.10
2022-10-04T00:30:25.099Z,3.20
2022-10-04T00:35:48.645Z,2.88
2022-10-04T00:40:58.165Z,3.00
2022-10-04T00:46:06.411Z,3.13
2022-10-04T00:51:19.869Z,2.83
2022-10-04T00:56:30.087Z,3.10
2022-10-04T01:01:36.364Z,3.10
2022-10-04T01:06:42.790Z,3.08
2022-10-04T01:11:53.735Z,3.20
2022-10-04T01:16:57.441Z,2.92
2022-10-04T01:22:12.230Z,3.10
2022-10-04T01:27:44.480Z,3.40
2022-10-04T01:32:48.075Z,3.13
2022-10-04T01:37:51.683Z,3.53
2022-10-04T01:43:02.414Z,3.35
2022-10-04T01:48:10.351Z,3.70
2022-10-04T01:53:19.170Z,3.88
2022-10-04T01:58:28.553Z,3.92
2022-10-04T02:03:36.989Z,3.85
2022-10-04T02:08:46.374Z,3.25
2022-10-04T02:13:54.386Z,3.60
2022-10-04T02:18:59.209Z,3.30
2022-10-04T02:24:03.162Z,3.50
2022-10-04T02:29:09.858Z,3.67
2022-10-04T02:34:14.062Z,3.53
2022-10-04T02:39:23.032Z,3.67
2022-10-04T02:44:31.465Z,3.97
2022-10-04T02:49:38.133Z,3.60
2022-10-04T02:54:46.818Z,3.47
2022-10-04T03:00:02.775Z,4.18
2022-10-04T03:05:09.467Z,3.72
2022-10-04T03:10:15.030Z,3.90
2022-10-04T03:15:21.437Z,4.00
2022-10-04T03:20:25.024Z,3.72
2022-10-04T03:25:31.558Z,3.60
2022-10-04T03:30:37.849Z,3.95
2022-10-04T03:35:41.663Z,3.30
2022-10-04T03:40:51.795Z,3.42
2022-10-04T03:45:57.336Z,3.55
2022-10-04T03:51:43.334Z,3.45
2022-10-04T03:57:22.556Z,3.60
2022-10-04T04:02:33.506Z,3.80
2022-10-04T04:07:42.236Z,3.20
2022-10-04T04:12:52.372Z,3.60
2022-10-04T04:18:01.590Z,3.75
2022-10-04T04:23:13.527Z,4.20
2022-10-04T04:28:25.880Z,3.67
2022-10-04T04:33:38.186Z,3.70
2022-10-04T04:38:41.761Z,3.58
2022-10-04T04:43:45.626Z,3.70
2022-10-04T04:48:57.174Z,3.85
2022-10-04T04:54:04.258Z,3.50
2022-10-04T04:59:09.025Z,3.85
2022-10-04T05:04:20.944Z,4.40
2022-10-04T05:09:25.679Z,3.97
2022-10-04T05:14:29.734Z,3.90
2022-10-04T05:19:38.274Z,3.72
2022-10-04T05:24:44.101Z,3.80
2022-10-04T05:30:00.943Z,3.70
2022-10-04T05:35:17.314Z,4.00
2022-10-04T05:40:40.934Z,4.20
2022-10-04T05:45:44.494Z,3.40
2022-10-04T05:50:49.771Z,3.67
2022-10-04T05:56:01.228Z,3.90
2022-10-04T06:01:28.131Z,3.75
2022-10-04T06:06:41.008Z,3.72
2022-10-04T06:11:58.325Z,3.78
2022-10-04T06:17:25.448Z,3.60
2022-10-04T06:22:31.741Z,4.20
2022-10-04T06:27:40.642Z,3.83
2022-10-04T06:33:29.332Z,3.83
2022-10-04T06:39:04.095Z,3.92
2022-10-04T06:44:48.746Z,3.60
2022-10-04T06:49:57.819Z,4.22
2022-10-04T06:55:35.172Z,4.28
2022-10-04T07:00:46.498Z,3.95
2022-10-04T07:05:55.217Z,3.72
2022-10-04T07:11:03.739Z,4.25
2022-10-04T07:16:13.619Z,4.10
2022-10-04T07:21:19.171Z,3.88
2022-10-04T07:26:34.750Z,3.75
2022-10-04T07:31:39.539Z,3.83
2022-10-04T07:36:49.529Z,3.97
2022-10-04T07:41:56.974Z,4.03
2022-10-04T07:47:04.545Z,4.00
2022-10-04T07:52:31.894Z,3.88
2022-10-04T07:57:47.856Z,4.00
2022-10-04T08:03:11.649Z,4.20
2022-10-04T08:08:43.664Z,4.00
2022-10-04T08:14:01.545Z,4.05
2022-10-04T08:19:20.764Z,3.63
2022-10-04T08:24:31.105Z,4.18
2022-10-04T08:30:07.059Z,3.85
2022-10-04T08:35:34.512Z,4.33
2022-10-04T08:41:04.032Z,4.03
2022-10-04T08:46:48.797Z,4.30
2022-10-04T08:52:29.029Z,4.40
2022-10-04T08:58:12.128Z,4.22
2022-10-04T09:03:51.550Z,3.70
2022-10-04T09:09:23.713Z,4.07
2022-10-04T09:14:58.382Z,3.63
2022-10-04T09:20:37.656Z,3.55
2022-10-04T09:26:02.446Z,3.78
2022-10-04T09:31:49.745Z,3.63
2022-10-04T09:37:22.387Z,4.22
2022-10-04T09:42:43.180Z,4.10
2022-10-04T09:47:52.479Z,4.13
2022-10-04T09:53:04.783Z,3.90
2022-10-04T09:58:39.262Z,4.05
2022-10-04T10:04:08.836Z,4.47
2022-10-04T10:09:28.449Z,4.63
2022-10-04T10:15:10.365Z,3.80
2022-10-04T10:21:00.937Z,3.67
2022-10-04T10:26:26.038Z,3.88
2022-10-04T10:31:51.864Z,3.80
2022-10-04T10:37:07.688Z,4.13
2022-10-04T10:42:36.659Z,4.05
2022-10-04T10:47:48.861Z,4.05
2022-10-04T10:53:29.557Z,3.63
2022-10-04T10:59:14.250Z,3.50
2022-10-04T11:04:44.679Z,3.47
2022-10-04T11:10:23.076Z,3.10
2022-10-04T11:16:11.612Z,3.80
2022-10-04T11:21:48.807Z,4.00
2022-10-04T11:27:19.638Z,4.00
2022-10-04T11:32:52.427Z,3.70
2022-10-04T11:38:10.989Z,4.00
2022-10-04T11:43:37.459Z,3.47
2022-10-04T11:48:57.762Z,4.32
2022-10-04T11:54:27.598Z,3.90
2022-10-04T11:59:43.611Z,3.78
2022-10-04T12:05:24.891Z,3.80
2022-10-04T12:10:35.456Z,3.88
2022-10-04T12:16:06.145Z,3.80
2022-10-04T12:21:39.311Z,3.65
2022-10-04T12:27:11.403Z,3.95
2022-10-04T12:32:19.112Z,3.97
2022-10-04T12:37:31.101Z,3.85
2022-10-04T12:42:46.946Z,3.95
2022-10-04T12:48:07.177Z,4.20
2022-10-04T12:53:19.168Z,3.50
2022-10-04T12:58:29.433Z,3.70
2022-10-04T13:03:42.857Z,3.80
2022-10-04T13:09:01.178Z,3.90
2022-10-04T13:14:34.103Z,4.07
2022-10-04T13:19:47.126Z,3.70
2022-10-04T13:25:02.702Z,3.80
2022-10-04T13:30:19.388Z,3.60
2022-10-04T13:35:27.688Z,3.80
2022-10-04T13:40:56.522Z,3.70
2022-10-04T13:46:13.635Z,3.80
2022-10-04T13:51:34.753Z,3.55
2022-10-04T13:56:59.934Z,3.50
2022-10-04T14:02:38.334Z,3.60
2022-10-04T14:08:02.518Z,3.63
2022-10-04T14:13:39.246Z,3.30
2022-10-04T14:19:19.655Z,3.08
2022-10-04T14:24:53.475Z,3.28
2022-10-04T14:30:13.953Z,2.97
2022-10-04T14:35:24.660Z,3.03
2022-10-04T14:40:59.360Z,3.40
2022-10-04T14:46:15.230Z,3.08
2022-10-04T14:51:40.422Z,3.00
2022-10-04T14:57:04.941Z,3.20
2022-10-04T15:02:44.289Z,3.05
2022-10-04T15:07:51.176Z,3.00
2022-10-04T15:13:12.439Z,3.13
2022-10-04T15:18:31.436Z,3.38
2022-10-04T15:23:39.685Z,3.80
2022-10-04T15:29:13.024Z,4.25
2022-10-04T15:34:32.604Z,3.88
2022-10-04T15:40:02.783Z,4.18
2022-10-04T15:45:30.783Z,4.95
2022-10-04T15:50:40.557Z,5.13
2022-10-04T15:56:02.529Z,4.72
2022-10-04T16:01:33.081Z,5.07
2022-10-04T16:06:48.165Z,5.00
2022-10-04T16:12:20.717Z,5.03
2022-10-04T16:18:06.327Z,5.13
2022-10-04T16:23:31.472Z,5.45
2022-10-04T16:29:16.176Z,5.60
2022-10-04T16:34:43.018Z,6.30
2022-10-04T16:40:00.354Z,5.43
2022-10-04T16:45:44.346Z,5.53
2022-10-04T16:51:38.026Z,6.15
2022-10-04T16:57:22.727Z,6.32
2022-10-04T17:02:55.112Z,5.93
2022-10-04T17:08:26.045Z,6.30
2022-10-04T17:13:37.000Z,5.63
2022-10-04T17:18:50.613Z,5.65
2022-10-04T17:24:18.546Z,6.22
2022-10-04T17:29:37.344Z,5.35
2022-10-04T17:34:53.403Z,5.28
2022-10-04T17:45:35.842Z,5.53
2022-10-04T17:50:44.658Z,4.93
2022-10-04T17:55:52.748Z,6.18
2022-10-04T18:01:02.987Z,4.82
2022-10-04T18:06:18.147Z,5.03
2022-10-04T18:11:31.227Z,5.00
2022-10-04T18:16:49.356Z,5.40
2022-10-04T18:21:54.029Z,5.10
2022-10-04T18:27:02.738Z,4.90
2022-10-04T18:32:30.812Z,5.00
2022-10-04T18:37:35.426Z,4.90
2022-10-04T18:42:43.529Z,4.63
2022-10-04T18:47:47.464Z,4.65
2022-10-04T18:53:03.012Z,4.75
2022-10-04T18:58:22.908Z,4.72
2022-10-04T19:03:35.178Z,3.92
2022-10-04T19:08:46.208Z,4.57
2022-10-04T19:13:56.911Z,4.40
2022-10-04T19:19:14.337Z,4.05
2022-10-04T19:24:46.243Z,4.25
2022-10-04T19:30:06.342Z,4.03
2022-10-04T19:35:21.963Z,4.20
2022-10-04T19:45:43.722Z,4.28
2022-10-04T19:50:50.354Z,4.38
2022-10-04T19:55:56.705Z,4.10
2022-10-04T20:01:02.109Z,3.83
2022-10-04T20:06:06.296Z,4.60
2022-10-04T20:11:17.443Z,4.18
2022-10-04T20:17:05.598Z,4.22
2022-10-04T20:22:50.128Z,4.50
2022-10-04T20:28:03.752Z,3.78
2022-10-04T20:33:08.997Z,3.80
2022-10-04T20:38:31.567Z,4.20
2022-10-04T20:43:54.541Z,3.80
2022-10-04T20:49:00.032Z,3.97
2022-10-04T20:54:03.623Z,4.20
2022-10-04T20:59:14.514Z,3.92
2022-10-04T21:04:22.521Z,3.90
2022-10-04T21:09:27.477Z,4.18
2022-10-04T21:14:31.800Z,3.58
2022-10-04T21:19:46.559Z,3.67
2022-10-04T21:24:56.343Z,4.03
2022-10-04T21:30:00.796Z,3.80
2022-10-04T21:35:07.393Z,3.87
2022-10-04T21:40:13.445Z,3.63
2022-10-04T21:45:19.163Z,3.83
2022-10-04T21:50:26.655Z,4.00
2022-10-04T21:55:30.175Z,3.70
2022-10-04T22:00:33.910Z,3.88
2022-10-04T22:05:39.127Z,3.90
2022-10-04T22:10:42.793Z,4.00
2022-10-04T22:15:46.931Z,3.97
2022-10-04T22:20:52.165Z,3.33
2022-10-04T22:25:56.665Z,3.95
2022-10-04T22:31:00.897Z,3.83
2022-10-04T22:36:16.076Z,3.87
2022-10-04T22:41:20.510Z,4.07
2022-10-04T22:46:25.838Z,3.77
2022-10-04T22:51:32.370Z,3.92
2022-10-04T22:56:35.914Z,3.83
2022-10-04T23:01:39.772Z,3.60
2022-10-04T23:06:45.145Z,3.95
2022-10-04T23:11:48.995Z,3.97
2022-10-04T23:16:52.585Z,4.70
2022-10-04T23:21:57.763Z,3.90
2022-10-04T23:27:01.338Z,4.10
2022-10-04T23:32:13.181Z,4.30
2022-10-04T23:37:21.509Z,4.18
2022-10-04T23:42:28.010Z,4.30
2022-10-04T23:47:34.383Z,3.80
2022-10-04T23:52:41.524Z,3.90
2022-10-04T23:57:45.354Z,4.00
